Time;durP1;ratioP1;P1;durP2;ratioP2;P2;SDS_P1;SDS_P2;PMS_P1;PMS_P2;Temp;Humidity;BMP_temperature;BMP_pressure;BME280_temperature;BME280_humidity;BME280_pressure;Samples;Min_cycle;Max_cycle;Signal;HPM_P1;HPM_P2
2021/07/21 00:01:37;;;;;;;46.22;8.40;;;;;;;13.35;76.68;102053.13;5052937;28;20549;-47
2021/07/21 00:04:02;;;;;;;31.80;7.00;;;;;;;13.29;76.83;102052.19;5054304;28;20040;-48
2021/07/21 00:06:28;;;;;;;16.38;6.05;;;;;;;13.26;76.69;102051.81;5051006;28;20172;-48
2021/07/21 00:08:54;;;;;;;12.57;6.40;;;;;;;13.20;76.77;102042.00;5049960;28;20415;-47
2021/07/21 00:14:13;;;;;;;19.08;6.95;;;;;;;13.16;77.80;102046.19;5052230;28;20035;-49
2021/07/21 00:16:42;;;;;;;17.80;6.45;;;;;;;13.08;77.97;102052.72;5052418;28;20025;-47
2021/07/21 00:21:52;;;;;;;12.80;6.18;;;;;;;12.99;78.14;102052.25;5052763;28;20510;-48
2021/07/21 00:24:18;;;;;;;13.25;6.93;;;;;;;12.98;78.03;102056.00;5051124;28;20037;-48
2021/07/21 00:26:44;;;;;;;12.80;5.88;;;;;;;12.96;78.19;102055.41;5052532;28;20021;-47
2021/07/21 00:29:10;;;;;;;24.17;7.22;;;;;;;12.95;78.20;102056.47;5052470;28;20021;-47
2021/07/21 00:31:35;;;;;;;11.70;6.60;;;;;;;12.93;78.51;102055.06;5055123;28;20475;-48
2021/07/21 00:34:01;;;;;;;13.57;7.25;;;;;;;12.91;78.79;102051.75;5053647;28;20113;-48
2021/07/21 00:36:28;;;;;;;14.82;7.60;;;;;;;12.89;79.08;102052.00;5053702;28;20062;-48
2021/07/21 00:38:53;;;;;;;12.85;6.35;;;;;;;12.84;79.10;102043.81;5051881;28;20067;-48
2021/07/21 00:41:19;;;;;;;12.90;7.03;;;;;;;12.81;78.90;102052.34;5052598;28;20478;-48
2021/07/21 00:43:45;;;;;;;10.13;5.85;;;;;;;12.76;78.94;102046.03;5057865;28;20168;-49
2021/07/21 00:46:10;;;;;;;9.75;5.95;;;;;;;12.71;78.74;102046.69;5058006;28;20032;-47
2021/07/21 00:48:35;;;;;;;15.38;5.30;;;;;;;12.68;78.71;102049.84;5059880;28;20528;-47
2021/07/21 00:51:01;;;;;;;13.00;5.70;;;;;;;12.63;78.61;102055.09;5046027;28;20612;-48
2021/07/21 00:53:27;;;;;;;14.80;5.93;;;;;;;12.61;78.62;102051.84;5059111;28;20474;-48
2021/07/21 00:55:53;;;;;;;14.68;5.60;;;;;;;12.60;78.83;102053.69;5056257;28;20175;-48
2021/07/21 00:58:18;;;;;;;13.88;6.85;;;;;;;12.57;78.86;102051.47;5111379;22;20068;-53
2021/07/21 01:00:44;;;;;;;24.73;6.93;;;;;;;12.59;79.23;102051.25;5105818;27;20024;-54
2021/07/21 01:03:11;;;;;;;19.48;6.80;;;;;;;12.66;79.30;102050.09;5119837;27;20027;-55
2021/07/21 01:05:41;;;;;;;18.00;7.75;;;;;;;12.67;79.37;102050.91;5118343;27;20049;-55
2021/07/21 01:08:12;;;;;;;12.57;7.25;;;;;;;12.69;79.42;102052.31;5117125;27;20597;-52
2021/07/21 01:10:43;;;;;;;12.82;8.25;;;;;;;12.70;79.82;102059.31;5115415;27;20352;-54
2021/07/21 01:13:25;;;;;;;13.63;7.05;;;;;;;12.72;79.66;102056.41;5119641;27;20049;-52
2021/07/21 01:16:02;;;;;;;10.98;6.90;;;;;;;12.78;79.53;102055.50;5119585;27;20023;-52
2021/07/21 01:18:35;;;;;;;16.35;6.57;;;;;;;12.81;79.30;102056.91;5116748;27;20059;-52
2021/07/21 01:21:17;;;;;;;10.48;6.80;;;;;;;12.81;79.12;102059.59;5104483;27;20015;-54
2021/07/21 01:23:48;;;;;;;10.80;6.68;;;;;;;12.85;79.06;102055.38;5112836;27;20028;-53
2021/07/21 01:26:16;;;;;;;13.40;7.38;;;;;;;12.96;78.93;102060.78;5113879;27;20059;-54
2021/07/21 01:28:45;;;;;;;12.93;7.40;;;;;;;13.06;79.07;102068.28;5117169;27;20118;-54
2021/07/21 01:31:25;;;;;;;20.27;7.78;;;;;;;13.08;79.29;102059.97;5123748;27;20020;-54
2021/07/21 01:33:50;;;;;;;14.38;7.20;;;;;;;13.10;79.28;102045.22;5119167;27;20039;-53
2021/07/21 01:36:25;;;;;;;18.23;8.68;;;;;;;13.10;79.54;102047.91;5115862;27;20025;-52
2021/07/21 01:38:54;;;;;;;14.60;8.30;;;;;;;13.13;79.51;102046.66;5116729;27;20080;-54
2021/07/21 01:41:23;;;;;;;13.65;7.95;;;;;;;13.14;79.55;102043.72;5112790;27;20063;-54
2021/07/21 01:43:51;;;;;;;15.15;8.70;;;;;;;13.11;79.60;102044.22;5101598;27;20034;-52
2021/07/21 01:46:22;;;;;;;15.68;8.95;;;;;;;13.13;79.87;102047.47;5116453;27;20102;-55
2021/07/21 01:48:50;;;;;;;15.73;9.07;;;;;;;13.15;79.41;102044.56;5115070;27;20435;-52
2021/07/21 01:51:17;;;;;;;13.95;8.05;;;;;;;13.18;79.73;102049.50;5120498;27;20478;-55
2021/07/21 01:53:45;;;;;;;19.38;8.40;;;;;;;13.19;79.78;102054.63;5118639;27;20062;-54
2021/07/21 01:56:11;;;;;;;12.60;8.10;;;;;;;13.26;79.56;102049.13;5112895;27;20023;-55
2021/07/21 01:58:39;;;;;;;12.80;8.45;;;;;;;13.29;79.72;102054.06;5114079;27;20110;-55
2021/07/21 02:01:06;;;;;;;15.18;8.93;;;;;;;13.33;79.74;102059.81;5110725;27;20039;-55
2021/07/21 02:03:33;;;;;;;14.93;8.68;;;;;;;13.36;79.96;102056.63;5108212;27;20470;-55
2021/07/21 02:06:02;;;;;;;15.05;7.53;;;;;;;13.43;79.86;102060.84;5112713;27;20042;-55
2021/07/21 02:08:29;;;;;;;18.02;8.23;;;;;;;13.50;79.75;102053.47;5113884;27;20081;-55
2021/07/21 02:10:58;;;;;;;14.82;7.85;;;;;;;13.53;79.48;102050.31;5114484;27;20554;-55
2021/07/21 02:13:26;;;;;;;15.23;8.07;;;;;;;13.58;79.46;102047.72;5113808;27;20447;-54
2021/07/21 02:15:52;;;;;;;13.38;8.10;;;;;;;13.64;79.48;102053.19;5113385;27;20030;-55
2021/07/21 02:18:19;;;;;;;31.60;8.57;;;;;;;13.67;79.34;102053.56;5113845;27;20030;-54
2021/07/21 02:20:46;;;;;;;28.67;8.77;;;;;;;13.65;79.68;102055.69;5113077;27;20016;-55
2021/07/21 02:23:16;;;;;;;16.02;7.85;;;;;;;13.66;79.61;102061.88;5116377;27;20023;-53
2021/07/21 02:25:42;;;;;;;13.60;8.27;;;;;;;13.67;79.64;102058.97;5112738;27;20640;-55
2021/07/21 02:28:08;;;;;;;13.60;7.65;;;;;;;13.69;79.75;102056.03;5114242;27;20146;-54
2021/07/21 02:30:35;;;;;;;13.48;7.78;;;;;;;13.71;79.86;102062.81;5114434;27;20019;-53
2021/07/21 02:33:10;;;;;;;15.25;8.27;;;;;;;13.73;80.30;102058.00;5111944;27;20449;-52
2021/07/21 02:35:36;;;;;;;14.32;9.07;;;;;;;13.75;80.51;102055.88;5109495;27;20100;-55
2021/07/21 02:38:03;;;;;;;12.98;6.82;;;;;;;13.80;80.44;102061.38;5116449;27;20088;-52
2021/07/21 02:40:29;;;;;;;14.65;6.93;;;;;;;13.85;80.60;102061.50;5111841;27;20031;-52
2021/07/21 02:42:54;;;;;;;15.00;8.02;;;;;;;13.89;80.55;102059.97;5117105;27;20023;-55
2021/07/21 02:45:20;;;;;;;10.90;6.90;;;;;;;13.95;80.27;102060.88;5114354;27;20065;-54
2021/07/21 02:47:45;;;;;;;17.17;7.93;;;;;;;13.98;80.03;102056.88;5111220;27;20019;-54
2021/07/21 02:50:12;;;;;;;13.15;7.82;;;;;;;13.98;79.89;102068.47;5113503;27;20038;-53
2021/07/21 02:52:45;;;;;;;11.05;7.47;;;;;;;13.99;79.87;102067.41;5116262;27;20462;-52
2021/07/21 02:55:13;;;;;;;14.88;7.25;;;;;;;14.00;79.58;102066.34;5111387;27;20031;-53
2021/07/21 02:57:44;;;;;;;11.10;7.50;;;;;;;14.06;79.45;102064.59;5113053;27;21183;-53
2021/07/21 03:00:19;;;;;;;12.40;7.25;;;;;;;14.06;79.64;102068.13;5114875;27;20059;-53
2021/07/21 03:02:48;;;;;;;10.02;6.78;;;;;;;14.04;79.93;102072.94;5111900;27;20038;-52
2021/07/21 03:05:17;;;;;;;11.70;6.70;;;;;;;14.06;79.89;102072.69;5116982;27;20037;-53
2021/07/21 03:07:48;;;;;;;11.75;6.82;;;;;;;14.09;80.01;102078.41;5116886;27;20453;-52
2021/07/21 03:10:15;;;;;;;11.23;7.13;;;;;;;14.11;80.12;102076.28;5116055;27;20511;-55
2021/07/21 03:12:49;;;;;;;10.95;7.65;;;;;;;14.00;81.15;102074.44;5114514;27;20066;-53
2021/07/21 03:15:16;;;;;;;15.13;7.78;;;;;;;14.10;80.65;102071.97;5115297;27;20390;-53
2021/07/21 03:17:45;;;;;;;11.95;7.07;;;;;;;14.16;80.54;102073.69;5113676;27;20374;-53
2021/07/21 03:20:13;;;;;;;14.32;7.15;;;;;;;14.22;80.37;102077.31;5114621;27;20073;-54
2021/07/21 03:22:40;;;;;;;13.88;7.28;;;;;;;14.34;79.81;102072.69;5114598;28;20313;-54
2021/07/21 03:25:08;;;;;;;12.52;7.30;;;;;;;14.35;80.07;102076.19;5111507;28;20029;-53
2021/07/21 03:27:39;;;;;;;15.38;7.25;;;;;;;14.39;79.87;102072.81;5116725;27;20031;-52
2021/07/21 03:30:07;;;;;;;20.20;7.57;;;;;;;14.45;79.65;102079.13;5113045;28;20028;-55
2021/07/21 03:32:35;;;;;;;12.82;7.18;;;;;;;14.47;79.57;102082.41;5102164;28;20027;-52
2021/07/21 03:35:01;;;;;;;11.25;7.07;;;;;;;14.54;79.37;102084.94;5114242;28;20614;-54
2021/07/21 03:37:27;;;;;;;15.48;7.45;;;;;;;14.55;79.36;102084.72;5112250;28;20041;-54
2021/07/21 03:39:58;;;;;;;12.68;7.85;;;;;;;14.58;79.25;102086.13;5111431;28;20484;-54
2021/07/21 03:42:25;;;;;;;10.25;6.30;;;;;;;14.60;79.27;102086.69;5111441;28;20028;-55
2021/07/21 03:44:53;;;;;;;11.50;7.35;;;;;;;14.60;79.47;102084.81;5093652;27;20427;-55
2021/07/21 03:47:19;;;;;;;9.70;7.13;;;;;;;14.66;79.32;102085.72;5108064;28;20024;-53
2021/07/21 03:49:46;;;;;;;11.70;7.13;;;;;;;14.74;79.32;102082.63;5114920;28;20426;-54
2021/07/21 03:52:13;;;;;;;10.35;6.55;;;;;;;14.78;79.51;102081.09;5111453;28;20446;-54
2021/07/21 03:54:40;;;;;;;9.45;6.82;;;;;;;14.85;79.29;102086.31;5114197;27;20817;-53
2021/07/21 03:57:07;;;;;;;11.30;6.88;;;;;;;14.90;79.27;102086.38;5113889;28;20081;-54
2021/07/21 03:59:36;;;;;;;9.23;6.53;;;;;;;14.96;79.47;102098.94;5116072;27;20095;-53
2021/07/21 04:02:02;;;;;;;10.20;6.78;;;;;;;15.02;79.53;102092.53;5116983;27;20019;-55
2021/07/21 04:04:29;;;;;;;12.90;7.63;;;;;;;15.08;79.70;102096.94;5118057;27;20057;-55
2021/07/21 04:06:57;;;;;;;9.73;6.78;;;;;;;15.13;79.71;102098.94;5118515;27;20544;-53
2021/07/21 04:09:25;;;;;;;11.77;6.85;;;;;;;15.20;79.56;102104.97;5116526;27;20039;-54
2021/07/21 04:11:53;;;;;;;12.23;6.70;;;;;;;15.24;79.73;102101.53;5119778;27;20242;-55
2021/07/21 04:14:20;;;;;;;16.05;7.15;;;;;;;15.28;79.47;102105.41;5114415;27;20043;-54
2021/07/21 04:16:49;;;;;;;11.52;6.63;;;;;;;15.32;79.51;102103.00;5117464;27;20124;-52
2021/07/21 04:19:15;;;;;;;11.23;7.50;;;;;;;15.37;79.69;102105.78;5115272;27;20019;-54
2021/07/21 04:21:45;;;;;;;15.75;7.43;;;;;;;15.43;79.56;102102.09;5118690;27;20434;-53
2021/07/21 04:24:12;;;;;;;14.27;7.15;;;;;;;15.50;79.44;102107.34;5114944;27;20028;-55
2021/07/21 04:26:39;;;;;;;12.75;7.43;;;;;;;15.55;79.21;102108.22;5117324;27;20619;-54
2021/07/21 04:29:06;;;;;;;10.48;6.63;;;;;;;15.62;79.10;102110.78;5115874;27;20025;-53
2021/07/21 04:31:36;;;;;;;11.45;6.80;;;;;;;15.69;78.59;102106.03;5116441;27;20027;-53
2021/07/21 04:34:03;;;;;;;13.80;7.68;;;;;;;15.75;78.37;102107.72;5118380;27;20035;-52
2021/07/21 04:36:29;;;;;;;14.82;7.80;;;;;;;15.83;78.35;102117.28;5114681;27;20516;-53
2021/07/21 04:38:55;;;;;;;9.15;6.95;;;;;;;15.85;78.66;102113.28;5115982;27;20024;-53
2021/07/21 04:41:23;;;;;;;9.93;7.13;;;;;;;15.95;78.46;102110.69;5117519;27;20019;-54
2021/07/21 04:43:49;;;;;;;10.82;6.45;;;;;;;16.05;78.38;102130.81;5115480;27;20027;-53
2021/07/21 04:46:17;;;;;;;9.68;6.30;;;;;;;16.14;78.28;102129.28;5118418;27;20030;-54
2021/07/21 04:48:43;;;;;;;10.60;7.07;;;;;;;16.19;78.89;102135.59;5117431;27;20034;-55
2021/07/21 04:51:10;;;;;;;11.95;7.35;;;;;;;16.29;78.93;102133.00;5116763;27;20024;-55
2021/07/21 04:53:37;;;;;;;12.88;7.40;;;;;;;16.39;78.88;102135.03;5113442;27;20035;-52
2021/07/21 04:56:03;;;;;;;11.30;7.03;;;;;;;16.41;79.31;102132.88;5113125;27;20131;-55
2021/07/21 04:58:29;;;;;;;11.50;6.90;;;;;;;16.42;78.59;102131.00;5115075;27;20039;-53
2021/07/21 05:00:56;;;;;;;10.63;6.70;;;;;;;16.28;78.71;102136.78;5116121;27;20092;-53
2021/07/21 05:03:22;;;;;;;15.25;7.30;;;;;;;16.41;78.44;102132.88;5118098;27;20300;-53
2021/07/21 05:05:48;;;;;;;11.10;6.97;;;;;;;16.48;78.12;102141.59;5115538;27;20372;-55
2021/07/21 05:08:14;;;;;;;11.10;6.25;;;;;;;16.61;77.63;102137.69;5111206;27;20055;-55
2021/07/21 05:10:40;;;;;;;11.95;7.18;;;;;;;16.56;77.89;102141.19;5115466;27;20054;-53
2021/07/21 05:13:06;;;;;;;12.43;6.57;;;;;;;16.60;77.45;102141.47;5110945;27;20088;-55
2021/07/21 05:15:32;;;;;;;10.27;6.40;;;;;;;16.70;77.09;102147.03;5118202;27;20027;-54
2021/07/21 05:17:58;;;;;;;10.07;7.03;;;;;;;16.86;76.87;102139.88;5113041;27;20472;-54
2021/07/21 05:20:24;;;;;;;10.45;6.78;;;;;;;16.86;77.05;102150.69;5112225;27;20031;-54
2021/07/21 05:22:49;;;;;;;12.75;7.00;;;;;;;16.97;76.62;102143.50;5114838;27;20035;-54
2021/07/21 05:25:17;;;;;;;14.88;6.97;;;;;;;16.97;76.33;102147.03;5112620;27;20075;-53
2021/07/21 05:27:43;;;;;;;13.30;7.82;;;;;;;17.08;76.08;102143.34;5112901;27;20377;-52
2021/07/21 05:30:10;;;;;;;11.73;7.10;;;;;;;17.10;76.29;102148.50;5113274;27;20088;-53
2021/07/21 05:32:35;;;;;;;17.45;8.00;;;;;;;17.16;75.98;102150.16;5114534;27;20062;-53
2021/07/21 05:35:01;;;;;;;14.00;7.07;;;;;;;17.29;75.74;102154.34;5113183;27;20515;-53
2021/07/21 05:37:27;;;;;;;11.10;6.55;;;;;;;17.38;75.42;102152.78;5112530;27;20489;-53
2021/07/21 05:39:53;;;;;;;13.75;7.28;;;;;;;17.26;75.30;102154.88;5112595;27;20027;-54
2021/07/21 05:42:18;;;;;;;14.75;7.80;;;;;;;17.26;75.55;102158.38;5112159;27;20053;-55
2021/07/21 05:44:44;;;;;;;13.23;6.55;;;;;;;17.39;74.79;102160.63;5099601;27;20031;-55
2021/07/21 05:47:10;;;;;;;12.45;6.88;;;;;;;17.47;74.87;102154.75;5113931;27;20062;-54
2021/07/21 05:49:35;;;;;;;10.50;6.65;;;;;;;17.47;74.92;102159.38;5111909;27;20161;-54
2021/07/21 05:52:03;;;;;;;12.60;7.60;;;;;;;17.61;74.19;102155.13;5116136;27;20433;-55
2021/07/21 05:54:29;;;;;;;13.10;6.97;;;;;;;17.68;74.20;102158.44;5111937;27;20481;-54
2021/07/21 05:56:55;;;;;;;12.50;7.30;;;;;;;17.56;74.21;102165.91;5118925;27;20046;-56
2021/07/21 05:59:20;;;;;;;13.15;6.47;;;;;;;17.69;74.22;102170.09;5117669;27;20027;-55
2021/07/21 06:01:45;;;;;;;10.80;6.25;;;;;;;17.79;73.25;102176.44;5098136;27;20487;-55
2021/07/21 06:04:11;;;;;;;10.05;6.68;;;;;;;17.85;72.83;102174.56;5110883;27;20028;-55
2021/07/21 06:06:37;;;;;;;13.00;6.82;;;;;;;17.68;73.85;102173.91;5111016;27;20020;-55
2021/07/21 06:09:04;;;;;;;13.40;7.10;;;;;;;17.89;73.41;102169.41;5114395;27;20031;-55
2021/07/21 06:11:29;;;;;;;10.57;6.15;;;;;;;17.93;73.13;102173.22;5119223;27;20503;-55
2021/07/21 06:13:57;;;;;;;9.95;6.57;;;;;;;17.85;73.04;102179.97;5113919;27;20027;-56
2021/07/21 06:16:24;;;;;;;12.20;6.63;;;;;;;18.05;72.49;102190.13;5112867;27;20042;-54
2021/07/21 06:18:50;;;;;;;12.77;5.43;;;;;;;18.03;72.37;102193.09;5118959;27;20042;-54
2021/07/21 06:21:15;;;;;;;12.10;6.35;;;;;;;18.19;72.17;102188.56;5111872;27;20032;-55
2021/07/21 06:23:41;;;;;;;11.40;5.85;;;;;;;18.41;71.64;102183.78;5116380;27;20031;-56
2021/07/21 06:26:06;;;;;;;9.80;6.13;;;;;;;18.70;70.32;102184.19;5115982;27;20023;-55
2021/07/21 06:28:32;;;;;;;10.27;5.82;;;;;;;18.54;70.14;102184.38;5114375;27;20020;-54
2021/07/21 06:30:57;;;;;;;9.30;5.90;;;;;;;18.58;69.71;102190.88;5111094;27;20027;-56
2021/07/21 06:33:23;;;;;;;12.35;6.32;;;;;;;18.53;70.32;102188.16;5115486;27;20054;-55
2021/07/21 06:35:49;;;;;;;8.98;6.07;;;;;;;18.81;69.46;102186.91;5115972;27;20059;-56
2021/07/21 06:38:15;;;;;;;9.10;6.10;;;;;;;18.81;68.90;102198.59;5113167;27;20096;-56
2021/07/21 06:40:41;;;;;;;11.95;5.60;;;;;;;18.82;68.91;102199.41;5111650;27;20023;-54
2021/07/21 06:43:08;;;;;;;9.02;5.70;;;;;;;19.09;68.31;102199.19;5112042;27;20457;-56
2021/07/21 06:45:34;;;;;;;9.98;6.38;;;;;;;19.32;67.52;102195.94;5107835;27;20080;-55
2021/07/21 06:48:00;;;;;;;11.30;5.93;;;;;;;19.63;66.75;102201.41;5115082;27;20120;-56
2021/07/21 06:50:26;;;;;;;11.52;5.68;;;;;;;19.47;66.63;102201.38;5113085;27;20043;-57
2021/07/21 06:52:52;;;;;;;8.57;5.65;;;;;;;19.34;67.43;102201.91;5112451;27;20035;-54
2021/07/21 06:55:18;;;;;;;10.02;5.95;;;;;;;19.77;66.56;102205.19;5111979;27;20024;-57
2021/07/21 06:57:44;;;;;;;8.38;5.25;;;;;;;19.98;65.40;102200.53;5089609;22;20033;-73
2021/07/21 07:00:09;;;;;;;10.68;4.82;;;;;;;20.02;64.50;102204.31;5044215;28;20044;-73
2021/07/21 07:02:35;;;;;;;11.13;5.88;;;;;;;19.86;65.72;102214.41;5022001;28;20025;-73
2021/07/21 07:05:01;;;;;;;9.90;4.97;;;;;;;19.86;65.28;102215.22;5040133;28;20024;-73
2021/07/21 07:07:26;;;;;;;8.80;5.65;;;;;;;19.67;64.67;102226.94;5042739;28;20235;-73
2021/07/21 07:09:52;;;;;;;8.68;5.72;;;;;;;20.08;64.56;102222.25;5042740;28;20033;-73
2021/07/21 07:12:17;;;;;;;7.72;5.80;;;;;;;20.14;64.13;102226.59;5042495;28;20047;-73
2021/07/21 07:14:43;;;;;;;10.65;5.95;;;;;;;20.18;64.07;102227.69;5043297;28;20032;-73
2021/07/21 07:17:09;;;;;;;10.07;5.90;;;;;;;20.35;63.44;102222.72;5043091;28;20126;-73
2021/07/21 07:19:35;;;;;;;7.55;5.07;;;;;;;20.69;62.78;102227.50;5043515;28;20029;-73
2021/07/21 07:22:01;;;;;;;7.97;5.07;;;;;;;21.14;61.97;102231.84;5026359;28;20032;-73
2021/07/21 07:24:28;;;;;;;7.00;5.13;;;;;;;21.12;60.84;102234.06;5040614;28;20029;-73
2021/07/21 07:26:58;;;;;;;8.55;5.07;;;;;;;20.93;60.02;102233.91;5024008;28;20025;-73
2021/07/21 07:29:24;;;;;;;7.07;4.88;;;;;;;21.06;60.54;102238.72;5042726;28;20043;-73
2021/07/21 07:31:50;;;;;;;11.07;5.82;;;;;;;21.22;60.57;102238.63;5038861;28;20124;-73
2021/07/21 07:34:16;;;;;;;8.90;4.85;;;;;;;21.34;60.40;102239.91;5041652;28;20033;-73
2021/07/21 07:36:42;;;;;;;8.43;4.40;;;;;;;21.57;59.88;102237.56;5045562;28;20082;-73
2021/07/21 07:39:08;;;;;;;8.48;4.65;;;;;;;21.57;57.11;102232.94;5042221;28;20459;-73
2021/07/21 07:41:35;;;;;;;7.28;4.50;;;;;;;21.64;57.20;102236.13;5046417;28;20130;-73
2021/07/21 07:44:02;;;;;;;7.93;4.43;;;;;;;21.53;57.32;102237.31;5046594;28;20412;-73
2021/07/21 07:46:27;;;;;;;6.03;3.75;;;;;;;21.20;57.48;102238.09;5045670;28;21115;-74
2021/07/21 07:48:55;;;;;;;8.73;4.03;;;;;;;20.97;57.79;102234.97;5042062;28;20055;-73
2021/07/21 07:51:22;;;;;;;6.55;3.95;;;;;;;21.18;56.63;102227.47;5045796;28;20117;-73
2021/07/21 07:53:47;;;;;;;5.45;4.40;;;;;;;21.64;55.59;102235.31;5044654;28;20037;-73
2021/07/21 07:56:13;;;;;;;6.78;4.40;;;;;;;21.97;56.15;102231.72;5022424;28;20029;-73
2021/07/21 07:58:39;;;;;;;7.28;4.60;;;;;;;22.42;55.64;102226.06;5045369;28;20838;-73
2021/07/21 08:01:04;;;;;;;6.90;4.53;;;;;;;21.99;55.14;102234.97;5043651;28;20553;-73
2021/07/21 08:03:30;;;;;;;5.93;3.63;;;;;;;22.20;54.03;102234.78;5044162;28;20498;-73
2021/07/21 08:05:57;;;;;;;5.05;4.10;;;;;;;22.45;52.86;102231.75;5046794;28;20033;-73
2021/07/21 08:08:23;;;;;;;5.20;3.50;;;;;;;22.79;51.64;102236.22;5044702;28;20021;-73
2021/07/21 08:10:49;;;;;;;49.75;21.85;;;;;;;23.23;52.09;102224.94;5029785;28;20598;-73
2021/07/21 08:13:15;;;;;;;10.70;6.10;;;;;;;23.43;51.17;102221.88;5048107;28;20170;-73
2021/07/21 08:15:41;;;;;;;6.03;4.40;;;;;;;22.94;50.90;102218.81;5048381;28;20053;-72
2021/07/21 08:18:06;;;;;;;6.40;3.78;;;;;;;22.35;50.16;102226.41;5045785;28;20055;-73
2021/07/21 08:20:32;;;;;;;11.32;4.57;;;;;;;22.19;49.32;102227.69;5048267;28;20027;-73
2021/07/21 08:22:58;;;;;;;15.00;7.28;;;;;;;22.81;50.22;102212.97;5030316;28;20590;-72
2021/07/21 08:25:24;;;;;;;17.60;3.92;;;;;;;22.34;49.60;102216.59;5028368;28;20032;-73
2021/07/21 08:27:51;;;;;;;6.60;3.65;;;;;;;21.62;50.87;102223.88;5039275;28;20040;-73
2021/07/21 08:30:17;;;;;;;8.43;3.85;;;;;;;21.08;52.03;102219.38;5039691;28;20028;-73
2021/07/21 08:32:48;;;;;;;6.53;4.47;;;;;;;21.28;51.35;102219.25;5041817;28;20490;-73
2021/07/21 08:35:18;;;;;;;5.95;3.60;;;;;;;21.57;52.05;102215.75;5048279;28;20037;-73
2021/07/21 08:37:44;;;;;;;7.63;4.40;;;;;;;21.88;51.40;102217.06;5047069;28;20451;-73
2021/07/21 08:40:12;;;;;;;9.27;4.22;;;;;;;21.66;50.57;102230.38;5046829;28;20112;-73
2021/07/21 08:42:38;;;;;;;7.40;3.60;;;;;;;21.34;51.05;102223.56;5046567;28;20024;-73
2021/07/21 08:45:06;;;;;;;6.22;4.40;;;;;;;21.39;51.83;102223.53;5039036;28;20044;-73
2021/07/21 08:47:32;;;;;;;8.45;4.03;;;;;;;21.79;51.55;102229.72;5043147;28;20029;-73
2021/07/21 08:49:58;;;;;;;5.38;3.53;;;;;;;21.86;50.56;102229.38;5019569;28;20445;-73
2021/07/21 08:52:24;;;;;;;8.73;3.67;;;;;;;21.44;50.59;102230.03;5023398;28;20033;-73
2021/07/21 08:54:52;;;;;;;4.53;3.50;;;;;;;21.41;51.34;102239.59;5040012;28;20037;-73
2021/07/21 08:57:18;;;;;;;5.00;3.42;;;;;;;21.39;50.78;102230.91;5042421;28;20028;-72
2021/07/21 08:59:45;;;;;;;4.32;3.50;;;;;;;21.22;51.54;102238.63;5038563;28;20032;-71
2021/07/21 09:02:12;;;;;;;5.40;3.55;;;;;;;21.16;52.25;102243.28;5032348;28;20025;-72
2021/07/21 09:04:39;;;;;;;5.15;3.60;;;;;;;21.27;51.96;102244.06;5041596;28;20024;-73
2021/07/21 09:07:07;;;;;;;6.75;3.80;;;;;;;21.38;50.98;102262.81;5044780;28;20033;-73
2021/07/21 09:09:33;;;;;;;7.63;4.03;;;;;;;21.45;51.59;102248.84;5042910;28;21572;-73
2021/07/21 09:11:59;;;;;;;5.65;3.30;;;;;;;21.61;51.81;102255.00;5042998;28;20029;-72
2021/07/21 09:14:25;;;;;;;6.43;4.10;;;;;;;21.98;51.81;102254.38;5042377;28;20047;-72
2021/07/21 09:17:11;;;;;;;8.20;4.00;;;;;;;22.12;50.81;102262.72;5043506;28;20037;-72
2021/07/21 09:19:41;;;;;;;5.22;3.08;;;;;;;22.27;50.50;102254.38;5038967;28;20029;-72
2021/07/21 09:22:16;;;;;;;7.22;3.60;;;;;;;22.32;51.19;102259.78;5044155;28;20399;-72
2021/07/21 09:24:43;;;;;;;5.70;3.30;;;;;;;22.55;49.88;102264.41;5038070;28;20044;-72
2021/07/21 09:27:09;;;;;;;4.85;3.33;;;;;;;22.20;49.94;102262.06;5040517;28;20792;-72
2021/07/21 09:29:35;;;;;;;5.40;3.78;;;;;;;21.73;50.75;102258.16;5017974;28;20105;-71
2021/07/21 09:32:01;;;;;;;6.82;3.70;;;;;;;22.07;50.43;102254.56;5037796;28;20017;-73
2021/07/21 09:34:28;;;;;;;4.85;3.00;;;;;;;21.74;49.81;102272.63;5041253;28;20044;-73
2021/07/21 09:37:05;;;;;;;3.97;2.88;;;;;;;22.12;50.94;102274.47;5044885;28;20039;-72
2021/07/21 09:39:33;;;;;;;4.63;3.13;;;;;;;22.18;50.14;102272.47;5041163;28;20044;-73
2021/07/21 09:41:59;;;;;;;5.00;3.53;;;;;;;22.27;50.23;102278.94;5042659;28;20021;-74
2021/07/21 09:47:15;;;;;;;5.15;3.13;;;;;;;22.88;50.16;102280.94;5067338;28;20039;-59
2021/07/21 09:49:41;;;;;;;4.15;3.10;;;;;;;22.86;49.31;102283.16;5077962;28;20385;-58
2021/07/21 09:52:18;;;;;;;6.50;3.50;;;;;;;22.97;49.02;102281.91;5090061;28;20423;-58
2021/07/21 09:55:05;;;;;;;4.05;3.33;;;;;;;22.90;48.62;102289.66;5091522;28;20031;-58
2021/07/21 09:57:30;;;;;;;4.47;2.80;;;;;;;22.98;48.51;102283.56;5073328;28;20389;-58
2021/07/21 09:59:58;;;;;;;10.43;4.10;;;;;;;21.79;49.21;102292.47;5095302;28;20024;-59
2021/07/21 10:02:27;;;;;;;4.70;3.20;;;;;;;21.67;50.23;102290.09;5095198;28;20421;-58
2021/07/21 10:04:53;;;;;;;4.80;3.20;;;;;;;21.80;49.59;102287.81;5090113;28;20027;-58
2021/07/21 10:10:31;;;;;;;4.75;3.28;;;;;;;21.26;51.19;102296.97;5093059;28;20020;-58
2021/07/21 10:13:08;;;;;;;5.05;3.00;;;;;;;21.59;51.33;102289.91;5051710;28;20286;-58
2021/07/21 10:15:34;;;;;;;5.28;3.25;;;;;;;21.84;50.51;102288.88;5092857;28;20035;-58
2021/07/21 10:18:07;;;;;;;5.15;2.70;;;;;;;21.99;50.02;102296.94;5095435;28;20030;-58
2021/07/21 10:20:34;;;;;;;7.40;2.92;;;;;;;22.43;49.88;102291.28;5089569;28;20098;-56
2021/07/21 10:22:59;;;;;;;4.75;2.67;;;;;;;22.24;48.70;102298.63;5096992;28;20161;-59
2021/07/21 10:25:26;;;;;;;4.90;3.78;;;;;;;22.26;48.23;102288.22;5095119;28;20107;-56
2021/07/21 10:27:54;;;;;;;10.23;5.20;;;;;;;22.17;49.21;102289.97;5081197;28;20031;-56
2021/07/21 10:30:20;;;;;;;17.50;13.35;;;;;;;22.20;48.15;102295.66;5094259;28;21877;-57
2021/07/21 10:32:47;;;;;;;11.20;8.23;;;;;;;22.75;48.29;102290.66;5096831;28;20031;-59
2021/07/21 10:35:12;;;;;;;6.63;4.45;;;;;;;23.10;47.54;102294.03;5092624;28;20524;-58
2021/07/21 10:37:38;;;;;;;5.93;5.03;;;;;;;23.02;47.01;102292.78;5094588;28;20088;-58
2021/07/21 10:40:06;;;;;;;4.63;4.00;;;;;;;22.64;46.72;102291.91;5092185;28;20032;-59
2021/07/21 10:42:32;;;;;;;4.65;3.20;;;;;;;22.63;47.89;102292.19;5090943;28;20035;-58
2021/07/21 10:45:15;;;;;;;4.82;3.00;;;;;;;21.97;48.45;102299.13;5090555;28;20032;-59
2021/07/21 10:47:46;;;;;;;4.90;3.72;;;;;;;22.00;49.00;102296.63;5076370;28;20100;-59
2021/07/21 10:50:37;;;;;;;6.45;4.43;;;;;;;21.89;49.70;102292.38;5069414;28;20032;-59
2021/07/21 10:53:22;;;;;;;7.07;3.67;;;;;;;21.83;50.21;102296.25;5093051;28;20036;-59
2021/07/21 10:59:10;;;;;;;4.55;2.92;;;;;;;21.84;49.49;102286.97;5086277;28;20067;-58
2021/07/21 11:01:28;;;;;;;3.50;2.97;;;;;;;21.10;49.40;102279.84;5087358;28;20027;-58
2021/07/21 11:04:05;;;;;;;4.97;3.15;;;;;;;21.78;49.46;102271.75;5090219;28;20031;-59
2021/07/21 11:06:46;;;;;;;4.72;2.88;;;;;;;22.28;48.85;102275.91;5094271;28;20047;-60
2021/07/21 11:09:25;;;;;;;15.35;9.15;;;;;;;22.66;47.67;102277.94;5092937;28;20019;-58
2021/07/21 11:11:57;;;;;;;7.80;4.78;;;;;;;22.78;46.85;102283.78;5093540;28;20023;-59
2021/07/21 11:14:33;;;;;;;4.05;3.17;;;;;;;22.27;46.00;102289.88;5089596;28;20023;-59
2021/07/21 11:17:07;;;;;;;5.10;3.47;;;;;;;22.19;45.73;102287.75;5094929;28;20464;-58
2021/07/21 11:19:46;;;;;;;6.97;4.25;;;;;;;22.72;46.91;102295.88;5091431;27;20028;-58
2021/07/21 11:22:18;;;;;;;9.85;7.43;;;;;;;22.33;45.48;102293.34;5092718;28;20489;-58
2021/07/21 11:25:05;;;;;;;4.13;3.03;;;;;;;22.13;46.15;102299.84;5089835;28;20032;-59
2021/07/21 11:27:40;;;;;;;7.95;5.72;;;;;;;22.17;47.31;102289.97;5090641;28;20046;-59
2021/07/21 11:30:41;;;;;;;3.25;2.63;;;;;;;22.35;46.59;102289.22;5091474;28;20027;-58
2021/07/21 11:33:46;;;;;;;3.80;2.45;;;;;;;22.71;46.97;102288.78;5054037;28;20560;-58
2021/07/21 11:36:57;;;;;;;3.72;2.75;;;;;;;23.38;46.29;102282.13;5091795;28;20500;-59
2021/07/21 11:39:48;;;;;;;3.72;2.47;;;;;;;23.55;45.35;102283.53;5090271;28;20519;-59